Time;durP1;ratioP1;P1;durP2;ratioP2;P2;SDS_P1;SDS_P2;PMS_P1;PMS_P2;Temp;Humidity;BMP_temperature;BMP_pressure;BME280_temperature;BME280_humidity;BME280_pressure;Samples;Min_cycle;Max_cycle;Signal;HPM_P1;HPM_P2
2021/03/26 00:01:17;;;;;;;39.47;16.75;;;;;;;1.38;51.68;94286.50;5088328;28;20065;-73
2021/03/26 00:03:44;;;;;;;45.63;17.63;;;;;;;1.37;52.25;94298.03;5089981;28;20016;-73
2021/03/26 00:06:15;;;;;;;40.50;19.55;;;;;;;1.40;53.16;94299.38;5089432;28;20099;-72
2021/03/26 00:08:41;;;;;;;46.95;19.58;;;;;;;1.36;53.52;94293.84;5088494;28;20028;-72
2021/03/26 00:11:08;;;;;;;47.65;20.08;;;;;;;1.19;54.18;94299.13;5089623;28;20430;-72
2021/03/26 00:13:33;;;;;;;45.25;20.55;;;;;;;1.28;53.97;94296.06;5088435;28;20020;-72
2021/03/26 00:15:59;;;;;;;45.05;18.95;;;;;;;1.35;53.82;94297.50;5089521;28;20098;-72
2021/03/26 00:18:25;;;;;;;53.90;20.00;;;;;;;1.32;54.00;94300.63;5089486;28;20085;-72
2021/03/26 00:20:50;;;;;;;53.67;21.55;;;;;;;1.34;54.32;94310.84;5088311;28;20028;-72
2021/03/26 00:23:16;;;;;;;60.30;21.73;;;;;;;1.37;54.66;94310.38;5089514;28;20024;-72
2021/03/26 00:25:42;;;;;;;49.05;21.48;;;;;;;1.38;55.14;94304.91;5089358;28;20024;-74
2021/03/26 00:28:07;;;;;;;44.53;20.35;;;;;;;1.39;55.27;94310.94;5089854;28;20039;-73
2021/03/26 00:30:34;;;;;;;51.15;20.70;;;;;;;1.36;55.88;94300.91;5092495;28;20042;-73
2021/03/26 00:32:59;;;;;;;52.13;22.08;;;;;;;1.35;56.06;94308.00;5093771;28;20028;-73
2021/03/26 00:35:26;;;;;;;51.10;22.02;;;;;;;1.34;56.11;94300.34;5092129;28;20043;-73
2021/03/26 00:37:52;;;;;;;54.35;22.08;;;;;;;1.27;55.90;94305.00;5092507;28;20114;-73
2021/03/26 00:40:19;;;;;;;50.55;23.05;;;;;;;1.25;55.95;94288.69;5092264;28;20457;-72
2021/03/26 00:42:45;;;;;;;48.35;22.23;;;;;;;1.26;56.16;94298.94;5093526;28;20036;-73
2021/03/26 00:45:16;;;;;;;47.50;22.42;;;;;;;1.21;55.78;94296.25;5092082;28;20077;-73
2021/03/26 00:47:42;;;;;;;52.33;22.50;;;;;;;1.22;56.20;94292.59;5093538;28;20457;-73
2021/03/26 00:50:30;;;;;;;40.90;20.98;;;;;;;1.21;56.14;94304.13;5092357;28;20028;-73
2021/03/26 00:52:58;;;;;;;44.30;20.25;;;;;;;1.19;55.94;94295.72;5092008;28;20020;-73
2021/03/26 00:55:23;;;;;;;53.42;23.08;;;;;;;1.15;56.72;94291.97;5091688;28;20068;-73
2021/03/26 00:57:49;;;;;;;48.75;22.02;;;;;;;1.17;56.61;94300.41;5093386;28;20176;-73
2021/03/26 01:00:20;;;;;;;41.35;21.40;;;;;;;1.14;55.98;94296.44;5093276;28;20043;-73
2021/03/26 01:02:47;;;;;;;49.08;21.70;;;;;;;1.10;55.85;94290.09;5091894;28;20036;-73
2021/03/26 01:05:16;;;;;;;46.95;21.20;;;;;;;1.07;56.00;94295.03;5093216;28;20097;-74
2021/03/26 01:07:44;;;;;;;50.10;20.88;;;;;;;1.12;56.11;94303.78;5091599;28;20039;-72
2021/03/26 01:10:11;;;;;;;46.35;21.25;;;;;;;1.11;55.37;94307.41;5091799;28;20494;-73
2021/03/26 01:12:36;;;;;;;49.60;20.85;;;;;;;1.09;55.67;94306.09;5092850;28;20106;-73
2021/03/26 01:15:07;;;;;;;45.17;21.02;;;;;;;1.05;56.42;94299.72;5092999;28;20475;-73
2021/03/26 01:17:33;;;;;;;43.33;19.63;;;;;;;1.02;56.56;94303.63;5092829;28;20024;-72
2021/03/26 01:19:58;;;;;;;52.97;21.15;;;;;;;0.99;56.05;94304.91;5091558;28;20486;-72
2021/03/26 01:22:24;;;;;;;46.65;20.45;;;;;;;1.00;55.51;94298.63;5092847;28;20050;-72
2021/03/26 01:24:50;;;;;;;44.05;20.33;;;;;;;0.97;55.54;94299.09;5091324;28;20134;-73
2021/03/26 01:27:15;;;;;;;44.03;19.27;;;;;;;1.01;55.44;94304.66;5091306;28;20035;-73
2021/03/26 01:29:40;;;;;;;48.85;20.83;;;;;;;1.00;55.51;94301.25;5091246;28;20502;-72
2021/03/26 01:32:07;;;;;;;44.30;19.25;;;;;;;0.99;55.90;94299.66;5092693;28;20077;-72
2021/03/26 01:34:32;;;;;;;47.42;20.25;;;;;;;0.98;55.29;94303.31;5091099;28;20479;-72
2021/03/26 01:36:58;;;;;;;39.05;18.30;;;;;;;1.02;55.59;94310.69;5092384;28;20028;-72
2021/03/26 01:39:23;;;;;;;41.85;19.55;;;;;;;0.94;55.19;94301.44;5091303;28;20024;-72
2021/03/26 01:41:49;;;;;;;53.60;20.48;;;;;;;0.93;55.83;94305.06;5092434;28;20063;-72
2021/03/26 01:44:18;;;;;;;38.08;18.15;;;;;;;0.91;55.70;94299.28;5091122;28;20028;-72
2021/03/26 01:46:45;;;;;;;32.22;16.08;;;;;;;0.88;53.56;94300.56;5092219;28;20039;-72
2021/03/26 01:49:11;;;;;;;30.77;12.43;;;;;;;0.91;51.11;94302.69;5092302;28;20032;-72
2021/03/26 01:51:45;;;;;;;30.63;12.88;;;;;;;0.98;50.65;94305.94;5092203;28;20474;-72
2021/03/26 01:54:14;;;;;;;27.35;11.50;;;;;;;1.03;50.55;94309.69;5091001;28;20053;-72
2021/03/26 01:56:40;;;;;;;23.70;10.15;;;;;;;1.05;48.53;94302.34;5092255;28;20077;-72
2021/03/26 01:59:07;;;;;;;22.00;10.15;;;;;;;1.09;48.67;94303.47;5090849;28;20052;-72
2021/03/26 02:01:45;;;;;;;24.45;9.50;;;;;;;1.10;47.97;94307.66;5092244;28;20028;-72
2021/03/26 02:04:25;;;;;;;14.13;6.65;;;;;;;1.09;45.41;94316.59;5090887;28;20048;-73
2021/03/26 02:06:53;;;;;;;21.77;9.57;;;;;;;1.04;48.10;94317.31;5090755;28;20024;-72
2021/03/26 02:09:28;;;;;;;32.17;13.93;;;;;;;1.10;50.21;94320.78;5091109;28;20530;-73
2021/03/26 02:12:07;;;;;;;33.97;15.80;;;;;;;1.15;52.12;94331.38;5090767;28;20036;-73
2021/03/26 02:14:38;;;;;;;44.25;19.15;;;;;;;1.11;53.34;94335.50;5090879;28;20020;-73
2021/03/26 02:17:05;;;;;;;50.25;22.83;;;;;;;1.08;55.59;94333.34;5090513;28;20020;-74
2021/03/26 02:19:47;;;;;;;53.08;22.58;;;;;;;1.00;56.45;94342.47;5092028;28;20024;-73
2021/03/26 02:22:15;;;;;;;51.45;23.67;;;;;;;0.95;56.44;94342.38;5091811;28;20073;-72
2021/03/26 02:24:43;;;;;;;50.22;22.35;;;;;;;0.90;56.72;94332.59;5091923;28;20040;-74
2021/03/26 02:27:17;;;;;;;47.78;22.33;;;;;;;0.90;56.76;94335.22;5091555;28;20112;-73
2021/03/26 02:29:43;;;;;;;47.13;23.35;;;;;;;0.81;57.07;94336.66;5091696;28;20360;-73
2021/03/26 02:32:27;;;;;;;51.63;21.73;;;;;;;0.76;56.97;94329.50;5090416;28;20077;-72
2021/03/26 02:35:15;;;;;;;45.40;21.20;;;;;;;0.70;56.80;94337.56;5090253;28;20031;-73
2021/03/26 02:37:49;;;;;;;44.05;21.73;;;;;;;0.68;57.09;94329.91;5091828;28;20424;-72
2021/03/26 02:40:22;;;;;;;50.30;21.95;;;;;;;0.65;57.02;94342.72;5091192;28;20107;-72
2021/03/26 02:42:55;;;;;;;53.78;22.05;;;;;;;0.66;57.19;94346.94;5091594;28;20064;-73
2021/03/26 02:45:31;;;;;;;47.70;19.42;;;;;;;0.62;57.14;94357.09;5089946;28;20016;-73
2021/03/26 02:47:59;;;;;;;45.22;21.52;;;;;;;0.59;57.37;94347.91;5091679;28;20028;-73
2021/03/26 02:50:54;;;;;;;49.50;20.70;;;;;;;0.55;57.46;94354.66;5089159;28;20073;-73
2021/03/26 02:53:32;;;;;;;51.80;19.95;;;;;;;0.55;57.23;94361.69;5087143;28;20040;-73
2021/03/26 02:56:15;;;;;;;46.78;19.98;;;;;;;0.55;56.91;94366.94;5091250;28;20495;-74
2021/03/26 02:58:47;;;;;;;44.25;19.67;;;;;;;0.56;56.55;94360.69;5091114;28;20118;-73
2021/03/26 03:01:12;;;;;;;38.33;18.23;;;;;;;0.55;56.93;94357.28;5089554;28;20077;-73
2021/03/26 03:03:40;;;;;;;41.55;19.33;;;;;;;0.52;57.36;94360.34;5089598;28;20036;-74
2021/03/26 03:06:19;;;;;;;40.90;17.48;;;;;;;0.40;57.55;94359.63;5089560;28;20502;-73
2021/03/26 03:08:47;;;;;;;34.30;16.35;;;;;;;0.36;56.97;94364.53;5090823;28;20035;-73
2021/03/26 03:11:44;;;;;;;38.45;18.10;;;;;;;0.42;56.67;94373.31;5089628;28;20057;-73
2021/03/26 03:14:20;;;;;;;35.08;16.52;;;;;;;0.39;56.23;94358.84;5090845;28;20028;-73
2021/03/26 03:16:52;;;;;;;43.50;16.35;;;;;;;0.41;56.60;94371.72;5090505;28;20035;-73
2021/03/26 03:19:55;;;;;;;31.73;15.50;;;;;;;0.40;55.96;94370.91;5089735;28;20480;-73
2021/03/26 03:22:24;;;;;;;34.70;15.85;;;;;;;0.44;55.97;94359.97;5089317;28;20028;-73
2021/03/26 03:24:49;;;;;;;27.70;13.45;;;;;;;0.48;55.41;94372.34;5089233;28;20169;-72
2021/03/26 03:27:15;;;;;;;34.20;14.07;;;;;;;0.49;55.36;94357.41;5090345;28;20473;-73
2021/03/26 03:30:00;;;;;;;29.95;14.57;;;;;;;0.51;55.83;94371.91;5089240;28;20092;-72
2021/03/26 03:32:41;;;;;;;33.67;14.10;;;;;;;0.52;55.13;94373.47;5090484;28;20027;-72
2021/03/26 03:35:16;;;;;;;29.10;14.27;;;;;;;0.58;55.28;94380.38;5090589;28;20027;-73
2021/03/26 03:38:07;;;;;;;27.42;12.93;;;;;;;0.56;54.67;94379.03;5089016;28;20039;-72
2021/03/26 03:41:14;;;;;;;35.88;13.75;;;;;;;0.56;55.33;94382.47;5079587;28;20058;-72
2021/03/26 03:43:48;;;;;;;30.80;13.20;;;;;;;0.53;55.36;94385.56;4975302;28;20017;-72
2021/03/26 03:46:24;;;;;;;32.03;13.23;;;;;;;0.45;55.20;94380.72;5008398;28;20022;-72
2021/03/26 03:49:11;;;;;;;27.05;11.63;;;;;;;0.44;54.87;94386.97;5057168;28;20090;-73
2021/03/26 03:51:44;;;;;;;30.23;13.00;;;;;;;0.44;54.62;94386.19;5088637;28;20101;-73
2021/03/26 03:54:17;;;;;;;30.30;13.38;;;;;;;0.46;54.66;94386.75;5088568;28;20425;-72
2021/03/26 03:56:50;;;;;;;29.83;14.35;;;;;;;0.48;54.90;94393.34;5089928;28;20073;-72
2021/03/26 03:59:30;;;;;;;30.48;12.90;;;;;;;0.48;54.93;94398.59;5089016;28;20104;-73
2021/03/26 04:02:00;;;;;;;29.35;12.32;;;;;;;0.55;54.24;94399.25;5088136;28;20028;-72
2021/03/26 04:05:21;;;;;;;27.35;13.73;;;;;;;0.52;54.07;94401.53;5088472;28;20020;-72
2021/03/26 04:08:02;;;;;;;22.92;11.50;;;;;;;0.53;52.97;94396.06;5049969;28;20063;-72
2021/03/26 04:10:34;;;;;;;27.95;13.30;;;;;;;0.52;52.99;94394.47;5088632;28;20020;-72
2021/03/26 04:13:09;;;;;;;30.17;12.88;;;;;;;0.51;54.03;94400.75;5088273;28;20506;-72
2021/03/26 04:15:43;;;;;;;26.58;12.00;;;;;;;0.46;54.16;94390.16;5089879;28;20044;-72
2021/03/26 04:19:04;;;;;;;30.80;13.00;;;;;;;0.49;54.37;94400.19;5088469;28;20031;-72
2021/03/26 04:21:35;;;;;;;26.60;12.23;;;;;;;0.47;55.06;94404.88;5057854;28;20046;-73
2021/03/26 04:24:12;;;;;;;27.10;13.27;;;;;;;0.48;55.04;94403.81;5088377;28;20032;-72
2021/03/26 04:26:55;;;;;;;33.80;14.10;;;;;;;0.44;55.54;94405.34;5088440;28;20033;-73
2021/03/26 04:29:52;;;;;;;34.33;12.88;;;;;;;0.46;55.34;94411.13;5089990;28;20456;-73
2021/03/26 04:32:20;;;;;;;37.13;14.10;;;;;;;0.47;55.37;94410.13;5044600;28;20028;-74
2021/03/26 04:34:47;;;;;;;37.28;15.90;;;;;;;0.49;55.50;94420.34;5088432;28;20032;-73
2021/03/26 04:37:32;;;;;;;37.97;16.75;;;;;;;0.45;55.18;94414.81;5089634;28;20087;-72
2021/03/26 04:40:09;;;;;;;36.38;16.63;;;;;;;0.47;55.49;94411.94;5089516;28;20035;-73
2021/03/26 04:42:51;;;;;;;46.28;17.70;;;;;;;0.49;55.75;94417.72;5088579;28;20024;-72
2021/03/26 04:45:35;;;;;;;51.77;20.77;;;;;;;0.50;55.63;94420.13;5088575;28;20032;-72
2021/03/26 04:48:14;;;;;;;45.05;21.58;;;;;;;0.50;55.41;94420.13;5089785;28;20059;-73
2021/03/26 04:51:05;;;;;;;49.22;21.85;;;;;;;0.50;55.09;94417.50;5089642;28;20066;-72
2021/03/26 04:53:53;;;;;;;58.28;25.65;;;;;;;0.55;55.18;94422.84;5090041;28;20024;-72
2021/03/26 04:56:24;;;;;;;47.13;20.65;;;;;;;0.58;55.13;94421.56;5089365;28;20020;-72
2021/03/26 04:58:57;;;;;;;39.83;20.52;;;;;;;0.56;55.76;94421.81;5089441;28;20056;-73
2021/03/26 05:01:23;;;;;;;43.78;19.30;;;;;;;0.44;56.04;94428.16;5089613;28;20027;-72
2021/03/26 05:03:56;;;;;;;41.50;19.70;;;;;;;0.45;57.18;94440.22;5089618;28;20484;-72
2021/03/26 05:06:28;;;;;;;46.28;18.98;;;;;;;0.47;56.82;94438.97;5088234;28;20051;-73
2021/03/26 05:08:58;;;;;;;53.85;19.58;;;;;;;0.48;56.79;94440.56;5088279;28;20036;-72
2021/03/26 05:11:28;;;;;;;40.60;17.95;;;;;;;0.51;57.63;94445.34;5088547;28;20406;-72
2021/03/26 05:13:59;;;;;;;44.47;18.17;;;;;;;0.47;58.31;94452.09;5089315;28;20103;-74
2021/03/26 05:16:43;;;;;;;38.42;18.33;;;;;;;0.49;57.05;94457.91;5093094;28;20020;-74
2021/03/26 05:19:40;;;;;;;38.47;16.40;;;;;;;0.51;57.56;94461.06;5093180;28;20028;-72
2021/03/26 05:22:42;;;;;;;39.47;15.63;;;;;;;0.49;56.96;94457.06;5090779;28;20058;-71
2021/03/26 05:25:34;;;;;;;39.22;18.00;;;;;;;0.46;57.62;94468.84;5089589;28;20055;-72
2021/03/26 05:28:01;;;;;;;41.23;17.40;;;;;;;0.47;57.21;94467.81;5090576;28;20093;-73
2021/03/26 05:30:30;;;;;;;39.17;16.60;;;;;;;0.55;56.57;94467.44;5091770;28;20270;-72
2021/03/26 05:33:02;;;;;;;41.30;17.23;;;;;;;0.63;56.66;94465.47;5092172;28;20059;-73
2021/03/26 05:35:27;;;;;;;45.63;16.48;;;;;;;0.65;56.35;94466.81;5092875;28;20093;-72
2021/03/26 05:37:56;;;;;;;37.75;17.92;;;;;;;0.67;56.60;94467.41;5091706;28;20044;-72
2021/03/26 05:41:03;;;;;;;42.97;16.65;;;;;;;0.60;56.38;94472.78;5092898;28;20027;-72
2021/03/26 05:43:49;;;;;;;43.13;16.48;;;;;;;0.69;56.06;94475.81;5029963;28;20036;-72
2021/03/26 05:46:30;;;;;;;41.55;18.08;;;;;;;0.72;56.15;94464.06;5092325;28;20028;-72
2021/03/26 05:49:29;;;;;;;46.63;18.02;;;;;;;0.80;55.95;94474.16;5092198;28;20028;-72
2021/03/26 05:52:22;;;;;;;47.33;16.63;;;;;;;0.88;55.81;94473.78;5090478;28;20028;-72
2021/03/26 05:55:36;;;;;;;46.45;16.90;;;;;;;0.93;55.68;94473.84;5089610;28;20427;-72
2021/03/26 05:58:20;;;;;;;35.50;16.00;;;;;;;0.97;55.66;94488.09;5032001;28;20053;-74
2021/03/26 06:01:10;;;;;;;39.53;17.10;;;;;;;1.03;55.62;94483.72;5033266;28;20489;-73
2021/03/26 06:03:54;;;;;;;43.65;17.40;;;;;;;1.02;55.01;94476.91;5080325;28;20047;-72
2021/03/26 06:06:25;;;;;;;44.83;18.30;;;;;;;1.06;55.28;94482.44;5090808;28;20030;-72
2021/03/26 06:09:10;;;;;;;41.50;16.50;;;;;;;1.16;54.78;94495.75;5090700;28;20035;-72
2021/03/26 06:12:04;;;;;;;50.17;19.27;;;;;;;1.22;54.66;94491.38;5089396;28;20059;-72
2021/03/26 06:14:35;;;;;;;55.90;21.23;;;;;;;1.27;54.90;94494.09;5089895;28;20169;-72
2021/03/26 06:17:25;;;;;;;57.47;23.30;;;;;;;1.28;54.50;94503.53;5089987;28;20465;-72
2021/03/26 06:20:09;;;;;;;51.95;20.42;;;;;;;1.28;55.02;94500.91;5088147;28;20482;-72
2021/03/26 06:22:57;;;;;;;54.60;22.13;;;;;;;1.36;54.57;94508.41;5090489;28;20138;-72
2021/03/26 06:25:34;;;;;;;53.38;20.10;;;;;;;1.48;54.53;94509.09;5087579;28;20058;-72
2021/03/26 06:28:16;;;;;;;44.85;20.02;;;;;;;1.55;54.25;94501.88;5092177;28;20032;-72
2021/03/26 06:30:56;;;;;;;54.67;19.83;;;;;;;1.52;54.50;94507.59;5090844;28;20047;-72
2021/03/26 06:33:43;;;;;;;40.95;19.42;;;;;;;1.57;54.74;94504.28;5092013;28;20032;-72
2021/03/26 06:36:11;;;;;;;42.78;19.25;;;;;;;1.71;54.82;94504.69;5090233;28;20024;-72
2021/03/26 06:39:12;;;;;;;47.53;19.88;;;;;;;1.83;54.16;94508.03;5090582;28;20031;-72
2021/03/26 06:41:44;;;;;;;45.78;19.25;;;;;;;1.97;53.64;94508.47;5089863;28;20025;-72
2021/03/26 06:44:28;;;;;;;46.22;19.63;;;;;;;2.07;53.41;94511.25;5091621;28;20032;-72
2021/03/26 06:47:23;;;;;;;45.92;19.63;;;;;;;2.15;53.48;94508.19;5091407;28;20026;-72
2021/03/26 06:50:06;;;;;;;46.35;17.90;;;;;;;2.30;53.24;94514.69;5084472;28;20063;-72
2021/03/26 06:52:43;;;;;;;56.20;21.70;;;;;;;2.43;53.14;94521.41;5091331;28;20020;-71
2021/03/26 06:55:30;;;;;;;50.88;19.58;;;;;;;2.53;52.29;94524.97;5089711;28;20193;-71
2021/03/26 06:58:16;;;;;;;46.40;19.00;;;;;;;2.64;51.71;94525.06;5090007;28;20028;-71
2021/03/26 07:01:00;;;;;;;43.55;19.13;;;;;;;2.72;51.04;94524.63;5091244;28;20072;-71
2021/03/26 07:03:54;;;;;;;42.30;17.35;;;;;;;2.88;50.51;94521.13;5089904;28;20118;-71
2021/03/26 07:06:29;;;;;;;44.00;17.77;;;;;;;3.04;50.03;94527.31;5089958;28;20043;-71
2021/03/26 07:09:27;;;;;;;35.33;16.90;;;;;;;3.23;49.50;94535.66;5089664;28;20114;-71
2021/03/26 07:12:04;;;;;;;31.33;13.82;;;;;;;3.36;47.22;94535.25;5091048;28;20073;-72
2021/03/26 07:14:42;;;;;;;27.70;11.30;;;;;;;3.46;45.55;94529.28;5090666;28;20031;-71
2021/03/26 07:17:26;;;;;;;23.05;9.80;;;;;;;3.63;44.22;94534.41;5090925;28;20149;-71
2021/03/26 07:20:16;;;;;;;35.17;11.55;;;;;;;3.64;45.69;94530.72;5089546;28;20069;-71
2021/03/26 07:23:10;;;;;;;32.60;10.80;;;;;;;3.67;45.06;94538.13;5089413;28;20032;-72
2021/03/26 07:26:12;;;;;;;30.70;11.52;;;;;;;3.80;45.12;94529.78;5088444;28;20115;-72
2021/03/26 07:28:56;;;;;;;22.42;9.73;;;;;;;3.89;43.82;94527.47;5089422;28;20098;-72
2021/03/26 07:31:33;;;;;;;27.25;10.57;;;;;;;3.92;44.00;94536.72;5090266;28;20020;-72
2021/03/26 07:34:27;;;;;;;33.60;10.68;;;;;;;4.09;43.66;94529.44;5089190;28;20035;-72
2021/03/26 07:37:12;;;;;;;24.02;10.25;;;;;;;4.20;42.77;94533.72;5018413;28;20456;-72
2021/03/26 07:40:15;;;;;;;20.10;8.25;;;;;;;4.29;42.25;94539.28;5090777;28;20024;-71
2021/03/26 07:42:59;;;;;;;24.98;8.77;;;;;;;4.35;41.14;94534.84;5087573;28;20371;-71
2021/03/26 07:45:55;;;;;;;18.13;8.30;;;;;;;4.42;41.69;94535.41;5089264;28;20070;-72
2021/03/26 07:48:32;;;;;;;16.88;8.43;;;;;;;4.54;41.41;94535.16;5089089;28;20104;-72
2021/03/26 07:51:08;;;;;;;16.02;7.82;;;;;;;4.61;40.62;94538.38;5090591;28;20056;-72
2021/03/26 07:53:39;;;;;;;18.17;8.48;;;;;;;4.68;40.95;94538.94;5085721;28;20034;-72
2021/03/26 07:56:32;;;;;;;22.40;8.48;;;;;;;4.77;40.85;94542.66;5089134;28;20031;-73
2021/03/26 07:58:57;;;;;;;21.15;8.25;;;;;;;4.78;39.93;94546.09;5090494;28;20024;-72
2021/03/26 08:01:55;;;;;;;35.63;9.82;;;;;;;4.76;40.73;94546.38;5090219;28;20430;-72
2021/03/26 08:04:27;;;;;;;22.15;8.77;;;;;;;4.80;40.57;94549.25;5088652;28;20020;-72
2021/03/26 08:07:17;;;;;;;18.17;8.70;;;;;;;4.88;41.32;94553.25;5090296;28;20035;-72
2021/03/26 08:10:07;;;;;;;20.98;8.52;;;;;;;4.91;41.47;94565.94;5090444;28;20031;-72
2021/03/26 08:13:00;;;;;;;18.33;7.05;;;;;;;4.89;39.91;94566.22;5090145;28;20479;-72
2021/03/26 08:15:51;;;;;;;17.60;8.18;;;;;;;4.80;40.60;94573.84;5088806;28;20097;-72
2021/03/26 08:18:25;;;;;;;18.85;8.85;;;;;;;4.78;40.76;94580.41;5088771;28;20028;-73
2021/03/26 08:21:12;;;;;;;17.83;8.52;;;;;;;4.73;39.83;94577.78;5089099;28;20530;-72
2021/03/26 08:24:14;;;;;;;18.50;8.95;;;;;;;4.81;39.48;94595.75;5084777;28;20028;-72
2021/03/26 08:27:14;;;;;;;14.85;8.25;;;;;;;4.80;38.97;94586.25;5090156;28;20115;-72
2021/03/26 08:30:08;;;;;;;18.85;7.63;;;;;;;4.87;40.18;94583.38;5088735;28;20024;-72
2021/03/26 08:33:07;;;;;;;15.48;8.23;;;;;;;4.90;40.09;94588.13;5073110;28;20042;-72
2021/03/26 08:35:55;;;;;;;21.85;8.73;;;;;;;4.95;40.43;94588.16;5088832;28;20059;-72
2021/03/26 08:38:35;;;;;;;15.50;7.95;;;;;;;4.92;40.46;94597.38;5088996;28;20024;-71
2021/03/26 08:41:22;;;;;;;14.98;7.53;;;;;;;4.95;38.98;94591.59;5089982;28;20545;-71
2021/03/26 08:43:51;;;;;;;14.52;6.72;;;;;;;4.92;39.37;94591.31;5090010;28;20455;-71
2021/03/26 08:46:22;;;;;;;20.40;8.20;;;;;;;4.95;39.26;94596.09;5088652;28;20039;-71
2021/03/26 08:49:24;;;;;;;13.35;6.65;;;;;;;4.89;38.28;94589.19;5089696;28;20065;-71
2021/03/26 08:52:08;;;;;;;;;;;;;;;4.82;38.75;94598.16;5088433;28;20056;-71
2021/03/26 08:54:53;;;;;;;16.58;8.10;;;;;;;4.87;39.82;94594.72;5092237;28;20384;-72
2021/03/26 08:57:51;;;;;;;25.35;9.77;;;;;;;5.01;39.97;94589.75;5092588;28;20399;-71
2021/03/26 09:00:24;;;;;;;19.83;7.40;;;;;;;5.01;39.05;94597.69;5093797;28;20028;-71
2021/03/26 09:03:15;;;;;;;16.80;6.97;;;;;;;5.08;38.86;94600.06;5094778;28;20020;-72
2021/03/26 09:05:43;;;;;;;16.85;7.85;;;;;;;5.17;39.80;94596.69;5093754;28;20039;-72
2021/03/26 09:08:42;;;;;;;21.88;8.20;;;;;;;5.22;39.08;94587.97;5092372;28;20533;-72
2021/03/26 09:11:10;;;;;;;13.93;6.85;;;;;;;5.25;38.35;94598.03;5093708;28;20460;-71
2021/03/26 09:13:39;;;;;;;20.60;7.45;;;;;;;5.28;38.15;94589.56;5092154;28;20028;-71
2021/03/26 09:16:11;;;;;;;17.98;7.35;;;;;;;5.33;38.70;94588.75;5092265;28;20077;-71
2021/03/26 09:18:36;;;;;;;19.38;8.23;;;;;;;5.42;37.55;94590.63;5091919;28;20031;-71
2021/03/26 09:21:28;;;;;;;14.02;7.00;;;;;;;5.31;38.65;94594.34;5091960;28;20028;-71
2021/03/26 09:24:21;;;;;;;21.05;7.35;;;;;;;5.20;38.94;94588.22;5080441;28;20181;-71
2021/03/26 09:27:05;;;;;;;;;;;;;;;5.24;39.00;94591.13;5092116;28;20456;-71
2021/03/26 09:29:59;;;;;;;15.18;7.63;;;;;;;5.07;38.66;94591.38;5092041;28;19998;-71
2021/03/26 09:33:05;;;;;;;22.23;8.68;;;;;;;5.22;39.47;94580.03;5092930;28;20487;-71
2021/03/26 09:35:36;;;;;;;13.07;7.35;;;;;;;5.32;38.95;94590.63;5051602;28;20120;-71
2021/03/26 09:38:06;;;;;;;13.60;6.88;;;;;;;5.42;39.59;94590.63;5079665;28;20032;-71
2021/03/26 09:40:51;;;;;;;17.75;7.75;;;;;;;5.37;38.37;94598.56;5091477;28;20016;-71
2021/03/26 09:43:55;;;;;;;13.98;6.50;;;;;;;5.33;39.26;94586.13;5089741;28;20051;-71
2021/03/26 09:46:47;;;;;;;20.63;8.82;;;;;;;5.37;39.63;94582.72;5061528;28;20036;-71
2021/03/26 09:49:38;;;;;;;18.50;8.40;;;;;;;5.45;40.14;94583.22;5087484;28;20412;-71
2021/03/26 09:52:13;;;;;;;26.15;8.57;;;;;;;5.57;39.75;94570.56;5086075;28;20560;-71
2021/03/26 09:54:43;;;;;;;19.02;7.00;;;;;;;5.70;40.27;94575.34;5091122;28;20105;-71
2021/03/26 09:57:41;;;;;;;15.50;7.22;;;;;;;5.89;38.76;94567.66;5086591;28;20031;-72
2021/03/26 10:00:36;;;;;;;19.98;6.53;;;;;;;5.92;39.63;94563.66;5075912;28;20082;-72
2021/03/26 10:03:10;;;;;;;21.25;7.68;;;;;;;6.10;39.60;94576.38;5069771;28;20056;-72
2021/03/26 10:06:11;;;;;;;19.73;8.23;;;;;;;6.07;39.83;94569.00;5090903;28;20020;-71
2021/03/26 10:11:46;;;;;;;17.42;8.32;;;;;;;6.15;39.09;94562.38;5092398;28;20089;-71
2021/03/26 10:14:14;;;;;;;20.70;8.10;;;;;;;6.06;38.79;94577.97;5091276;28;20042;-71
2021/03/26 10:16:49;;;;;;;13.35;7.70;;;;;;;6.11;39.15;94567.41;5091093;28;20020;-71
2021/03/26 10:19:22;;;;;;;20.05;8.50;;;;;;;6.17;39.80;94566.31;5091027;28;20028;-71
2021/03/26 10:21:52;;;;;;;14.88;7.75;;;;;;;6.11;38.58;94554.16;5090708;28;20206;-72
2021/03/26 10:24:27;;;;;;;19.73;8.27;;;;;;;6.21;41.13;94572.66;5092029;28;20379;-72
2021/03/26 10:27:01;;;;;;;16.85;7.82;;;;;;;6.28;39.20;94568.94;5090789;28;20043;-71
2021/03/26 10:29:52;;;;;;;17.05;7.63;;;;;;;6.31;40.13;94557.81;5090722;28;20032;-71
2021/03/26 10:32:22;;;;;;;17.38;8.50;;;;;;;6.27;39.00;94559.41;5087170;28;20031;-71
2021/03/26 10:34:50;;;;;;;16.90;8.57;;;;;;;6.23;39.43;94565.25;5090555;28;20035;-71
2021/03/26 10:37:42;;;;;;;15.98;8.10;;;;;;;6.16;38.85;94551.50;5091741;28;20016;-71
2021/03/26 10:40:32;;;;;;;16.00;8.07;;;;;;;6.16;38.52;94551.50;5091726;28;20031;-71
2021/03/26 10:43:23;;;;;;;19.88;8.10;;;;;;;6.21;38.87;94553.34;5090088;28;20070;-71
2021/03/26 10:46:01;;;;;;;24.83;9.52;;;;;;;6.26;39.11;94550.69;5090231;28;20028;-71
2021/03/26 10:48:53;;;;;;;21.83;8.75;;;;;;;6.30;38.90;94561.53;5087073;28;20054;-71
2021/03/26 10:51:37;;;;;;;18.27;8.57;;;;;;;6.27;38.91;94556.75;5089744;28;20028;-71
2021/03/26 10:54:03;;;;;;;15.27;6.78;;;;;;;6.35;40.18;94566.81;5087158;28;20486;-71
2021/03/26 10:56:42;;;;;;;15.50;7.95;;;;;;;6.31;37.11;94557.81;5090144;28;20102;-71
2021/03/26 11:00:06;;;;;;;20.50;8.02;;;;;;;6.31;38.32;94558.63;5089220;28;20110;-71
2021/03/26 11:02:47;;;;;;;19.65;8.38;;;;;;;6.35;40.68;94554.38;5044741;28;20040;-71
2021/03/26 11:05:24;;;;;;;16.15;8.20;;;;;;;6.50;40.27;94552.75;5089561;28;20027;-71
2021/03/26 11:08:02;;;;;;;43.83;10.55;;;;;;;6.60;40.61;94544.75;5089748;28;20032;-71
2021/03/26 11:10:34;;;;;;;16.73;8.63;;;;;;;6.64;38.85;94567.00;5086000;28;20522;-72
2021/03/26 11:13:04;;;;;;;15.60;8.07;;;;;;;6.69;38.25;94556.38;5090502;28;20031;-71
2021/03/26 11:15:34;;;;;;;19.10;8.75;;;;;;;6.74;38.57;94551.06;5089640;28;20114;-71
2021/03/26 11:18:00;;;;;;;20.38;8.55;;;;;;;6.83;39.37;94553.94;5090841;28;20058;-71
2021/03/26 11:20:49;;;;;;;20.52;9.10;;;;;;;6.91;41.08;94539.31;5089436;28;20122;-71
2021/03/26 11:23:27;;;;;;;16.02;8.25;;;;;;;7.18;37.89;94546.84;5076561;28;20577;-71
2021/03/26 11:26:05;;;;;;;19.58;8.40;;;;;;;7.25;38.65;94538.63;5090504;28;20549;-71
2021/03/26 11:28:30;;;;;;;16.67;7.38;;;;;;;7.38;37.38;94540.63;5090076;28;20020;-71
2021/03/26 11:31:24;;;;;;;20.08;8.20;;;;;;;7.53;37.64;94540.53;5088870;28;20038;-71
2021/03/26 11:34:27;;;;;;;27.27;8.90;;;;;;;7.64;38.30;94535.94;5090724;28;20577;-71
2021/03/26 11:37:07;;;;;;;23.92;10.25;;;;;;;7.57;37.54;94536.28;5027999;28;20057;-71
2021/03/26 11:40:07;;;;;;;18.90;10.02;;;;;;;7.41;38.29;94524.97;5083126;28;20036;-71
2021/03/26 11:42:54;;;;;;;18.33;9.00;;;;;;;7.31;37.26;94518.97;5089138;28;20446;-71
2021/03/26 11:45:36;;;;;;;18.60;8.70;;;;;;;7.25;36.55;94528.78;5090109;28;20050;-71
2021/03/26 11:48:15;;;;;;;18.25;8.63;;;;;;;7.35;38.26;94530.59;5088948;28;20039;-71
2021/03/26 11:50:50;;;;;;;21.15;8.25;;;;;;;7.50;38.99;94505.81;5090472;28;20032;-71
2021/03/26 11:53:22;;;;;;;44.75;10.43;;;;;;;7.63;38.93;94513.94;5088863;28;20027;-71
2021/03/26 11:56:24;;;;;;;29.02;9.18;;;;;;;7.71;39.62;94517.81;5090022;28;20052;-71
2021/03/26 11:58:52;;;;;;;24.27;8.13;;;;;;;7.86;38.32;94514.28;5090400;28;20069;-71
2021/03/26 12:01:22;;;;;;;18.35;8.52;;;;;;;7.91;37.65;94513.44;5088725;28;20024;-71
2021/03/26 12:04:28;;;;;;;31.63;10.40;;;;;;;7.97;37.27;94510.44;5088885;28;20044;-71
2021/03/26 12:07:02;;;;;;;23.95;8.32;;;;;;;7.99;38.10;94505.63;5074094;28;20436;-71
2021/03/26 12:09:47;;;;;;;16.02;8.15;;;;;;;8.01;37.64;94500.06;5088584;28;20024;-71
2021/03/26 12:12:29;;;;;;;23.63;9.45;;;;;;;7.96;36.12;94516.03;5089992;28;20162;-71
2021/03/26 12:15:02;;;;;;;22.73;8.13;;;;;;;7.99;38.02;94502.19;5090171;28;20119;-71
2021/03/26 12:17:43;;;;;;;17.15;8.07;;;;;;;8.17;37.40;94498.81;5089339;28;20028;-71
2021/03/26 12:20:19;;;;;;;15.65;7.45;;;;;;;8.26;35.07;94504.31;5088592;28;20027;-71
2021/03/26 12:22:54;;;;;;;14.52;7.35;;;;;;;8.27;35.56;94497.16;5088349;28;20032;-71
2021/03/26 12:25:29;;;;;;;22.23;7.50;;;;;;;8.28;36.60;94506.69;5089362;28;20031;-71
2021/03/26 12:27:56;;;;;;;28.13;9.05;;;;;;;8.44;37.12;94497.50;5089881;28;20069;-71